sensor_id;sensor_type;location;lat;lon;timestamp;P1;durP1;ratioP1;P2;durP2;ratioP2
22780;SDS011;11557;50.884;4.322;2022-12-29T00:01:40;3.83;;;1.30;;
22780;SDS011;11557;50.884;4.322;2022-12-29T00:04:06;3.38;;;1.45;;
22780;SDS011;11557;50.884;4.322;2022-12-29T00:06:32;1.73;;;1.20;;
22780;SDS011;11557;50.884;4.322;2022-12-29T00:08:57;2.28;;;1.30;;
22780;SDS011;11557;50.884;4.322;2022-12-29T00:11:24;2.45;;;1.27;;
22780;SDS011;11557;50.884;4.322;2022-12-29T00:13:51;1.50;;;1.20;;
22780;SDS011;11557;50.884;4.322;2022-12-29T00:16:36;2.25;;;1.00;;
22780;SDS011;11557;50.884;4.322;2022-12-29T00:19:03;4.78;;;1.10;;
22780;SDS011;11557;50.884;4.322;2022-12-29T00:21:29;3.42;;;0.90;;
22780;SDS011;11557;50.884;4.322;2022-12-29T00:24:15;3.45;;;1.10;;
22780;SDS011;11557;50.884;4.322;2022-12-29T00:26:58;1.42;;;0.80;;
22780;SDS011;11557;50.884;4.322;2022-12-29T00:29:53;0.85;;;0.60;;
22780;SDS011;11557;50.884;4.322;2022-12-29T00:32:37;2.10;;;0.80;;
22780;SDS011;11557;50.884;4.322;2022-12-29T00:35:44;2.58;;;1.15;;
22780;SDS011;11557;50.884;4.322;2022-12-29T00:38:11;5.43;;;1.08;;
22780;SDS011;11557;50.884;4.322;2022-12-29T00:40:56;3.28;;;1.10;;
22780;SDS011;11557;50.884;4.322;2022-12-29T00:43:40;3.65;;;0.90;;
22780;SDS011;11557;50.884;4.322;2022-12-29T00:46:24;7.53;;;1.30;;
22780;SDS011;11557;50.884;4.322;2022-12-29T00:48:50;7.40;;;0.98;;
22780;SDS011;11557;50.884;4.322;2022-12-29T00:51:34;3.50;;;0.97;;
22780;SDS011;11557;50.884;4.322;2022-12-29T00:54:00;4.00;;;1.08;;
22780;SDS011;11557;50.884;4.322;2022-12-29T00:56:26;5.05;;;0.95;;
22780;SDS011;11557;50.884;4.322;2022-12-29T00:58:52;4.18;;;1.00;;
22780;SDS011;11557;50.884;4.322;2022-12-29T01:01:17;3.15;;;0.98;;
22780;SDS011;11557;50.884;4.322;2022-12-29T01:03:43;6.28;;;1.23;;
22780;SDS011;11557;50.884;4.322;2022-12-29T01:06:10;6.35;;;1.00;;
22780;SDS011;11557;50.884;4.322;2022-12-29T01:08:36;3.65;;;0.90;;
22780;SDS011;11557;50.884;4.322;2022-12-29T01:13:32;4.25;;;1.20;;
22780;SDS011;11557;50.884;4.322;2022-12-29T01:15:58;6.75;;;1.13;;
22780;SDS011;11557;50.884;4.322;2022-12-29T01:18:24;6.95;;;1.50;;
22780;SDS011;11557;50.884;4.322;2022-12-29T01:20:51;4.18;;;0.93;;
22780;SDS011;11557;50.884;4.322;2022-12-29T01:23:22;2.80;;;1.10;;
22780;SDS011;11557;50.884;4.322;2022-12-29T01:25:48;3.33;;;0.77;;
22780;SDS011;11557;50.884;4.322;2022-12-29T01:28:14;2.83;;;0.90;;
22780;SDS011;11557;50.884;4.322;2022-12-29T01:30:39;4.32;;;0.95;;
22780;SDS011;11557;50.884;4.322;2022-12-29T01:33:05;3.28;;;1.27;;
22780;SDS011;11557;50.884;4.322;2022-12-29T01:35:31;3.08;;;1.00;;
22780;SDS011;11557;50.884;4.322;2022-12-29T01:37:57;5.20;;;1.27;;
22780;SDS011;11557;50.884;4.322;2022-12-29T01:40:23;2.83;;;1.02;;
22780;SDS011;11557;50.884;4.322;2022-12-29T01:42:49;2.47;;;0.90;;
22780;SDS011;11557;50.884;4.322;2022-12-29T01:45:15;4.22;;;1.10;;
22780;SDS011;11557;50.884;4.322;2022-12-29T01:47:57;4.85;;;1.13;;
22780;SDS011;11557;50.884;4.322;2022-12-29T01:50:28;4.13;;;1.02;;
22780;SDS011;11557;50.884;4.322;2022-12-29T01:55:44;3.90;;;1.38;;
22780;SDS011;11557;50.884;4.322;2022-12-29T01:58:14;2.00;;;0.95;;
22780;SDS011;11557;50.884;4.322;2022-12-29T02:00:42;5.22;;;1.10;;
22780;SDS011;11557;50.884;4.322;2022-12-29T02:03:08;3.58;;;1.00;;
22780;SDS011;11557;50.884;4.322;2022-12-29T02:05:39;3.83;;;1.10;;
22780;SDS011;11557;50.884;4.322;2022-12-29T02:08:12;4.57;;;1.17;;
22780;SDS011;11557;50.884;4.322;2022-12-29T02:10:38;3.20;;;1.10;;
22780;SDS011;11557;50.884;4.322;2022-12-29T02:13:05;4.18;;;1.00;;
22780;SDS011;11557;50.884;4.322;2022-12-29T02:32:12;3.65;;;0.93;;
22780;SDS011;11557;50.884;4.322;2022-12-29T02:37:20;5.63;;;0.90;;
22780;SDS011;11557;50.884;4.322;2022-12-29T02:42:49;3.63;;;0.60;;
22780;SDS011;11557;50.884;4.322;2022-12-29T02:45:36;5.97;;;0.80;;
22780;SDS011;11557;50.884;4.322;2022-12-29T02:48:18;3.92;;;0.63;;
22780;SDS011;11557;50.884;4.322;2022-12-29T02:50:59;1.00;;;0.40;;
22780;SDS011;11557;50.884;4.322;2022-12-29T02:53:32;4.60;;;0.95;;
22780;SDS011;11557;50.884;4.322;2022-12-29T02:56:18;1.88;;;0.57;;
22780;SDS011;11557;50.884;4.322;2022-12-29T02:58:44;3.83;;;0.60;;
22780;SDS011;11557;50.884;4.322;2022-12-29T03:01:22;3.05;;;0.70;;
22780;SDS011;11557;50.884;4.322;2022-12-29T03:14:53;8.23;;;1.40;;
22780;SDS011;11557;50.884;4.322;2022-12-29T03:20:52;7.03;;;1.35;;
22780;SDS011;11557;50.884;4.322;2022-12-29T03:23:22;9.05;;;1.58;;
22780;SDS011;11557;50.884;4.322;2022-12-29T03:25:54;6.22;;;1.30;;
22780;SDS011;11557;50.884;4.322;2022-12-29T03:28:30;6.38;;;1.25;;
22780;SDS011;11557;50.884;4.322;2022-12-29T03:31:00;4.53;;;0.82;;
22780;SDS011;11557;50.884;4.322;2022-12-29T03:33:29;3.50;;;0.70;;
22780;SDS011;11557;50.884;4.322;2022-12-29T03:35:58;4.80;;;1.30;;
22780;SDS011;11557;50.884;4.322;2022-12-29T03:38:30;5.57;;;1.00;;
22780;SDS011;11557;50.884;4.322;2022-12-29T03:41:02;1.48;;;0.55;;
22780;SDS011;11557;50.884;4.322;2022-12-29T03:43:32;4.00;;;0.80;;
22780;SDS011;11557;50.884;4.322;2022-12-29T03:45:58;2.22;;;0.68;;
22780;SDS011;11557;50.884;4.322;2022-12-29T03:48:24;4.95;;;0.88;;
22780;SDS011;11557;50.884;4.322;2022-12-29T03:50:49;5.82;;;0.95;;
22780;SDS011;11557;50.884;4.322;2022-12-29T03:53:15;3.33;;;0.98;;
22780;SDS011;11557;50.884;4.322;2022-12-29T03:55:41;7.20;;;1.00;;
22780;SDS011;11557;50.884;4.322;2022-12-29T03:58:06;6.82;;;1.08;;
22780;SDS011;11557;50.884;4.322;2022-12-29T04:00:32;4.63;;;0.90;;
22780;SDS011;11557;50.884;4.322;2022-12-29T04:02:57;7.22;;;1.30;;
22780;SDS011;11557;50.884;4.322;2022-12-29T04:05:23;9.15;;;1.13;;
22780;SDS011;11557;50.884;4.322;2022-12-29T04:07:49;4.57;;;0.90;;
22780;SDS011;11557;50.884;4.322;2022-12-29T04:10:14;3.83;;;1.00;;
22780;SDS011;11557;50.884;4.322;2022-12-29T04:12:40;4.55;;;0.80;;
22780;SDS011;11557;50.884;4.322;2022-12-29T04:15:07;8.55;;;1.08;;
22780;SDS011;11557;50.884;4.322;2022-12-29T04:17:33;4.40;;;1.10;;
22780;SDS011;11557;50.884;4.322;2022-12-29T04:19:59;2.97;;;0.93;;
22780;SDS011;11557;50.884;4.322;2022-12-29T04:22:43;2.33;;;1.10;;
22780;SDS011;11557;50.884;4.322;2022-12-29T04:25:08;6.10;;;1.20;;
22780;SDS011;11557;50.884;4.322;2022-12-29T04:27:34;4.28;;;0.98;;
22780;SDS011;11557;50.884;4.322;2022-12-29T04:30:00;8.88;;;1.05;;
22780;SDS011;11557;50.884;4.322;2022-12-29T04:32:25;7.43;;;0.90;;
22780;SDS011;11557;50.884;4.322;2022-12-29T04:34:51;6.57;;;1.02;;
22780;SDS011;11557;50.884;4.322;2022-12-29T04:37:17;6.63;;;1.10;;
22780;SDS011;11557;50.884;4.322;2022-12-29T04:39:42;5.00;;;0.90;;
22780;SDS011;11557;50.884;4.322;2022-12-29T04:42:08;6.30;;;0.85;;
22780;SDS011;11557;50.884;4.322;2022-12-29T04:44:33;3.58;;;1.17;;
22780;SDS011;11557;50.884;4.322;2022-12-29T04:46:59;9.00;;;1.13;;
22780;SDS011;11557;50.884;4.322;2022-12-29T04:49:25;5.55;;;1.00;;
22780;SDS011;11557;50.884;4.322;2022-12-29T04:51:51;6.32;;;1.27;;
22780;SDS011;11557;50.884;4.322;2022-12-29T04:54:17;5.47;;;1.20;;
22780;SDS011;11557;50.884;4.322;2022-12-29T04:56:43;9.85;;;1.05;;
22780;SDS011;11557;50.884;4.322;2022-12-29T04:59:08;5.82;;;1.40;;
22780;SDS011;11557;50.884;4.322;2022-12-29T05:01:34;5.43;;;1.52;;
22780;SDS011;11557;50.884;4.322;2022-12-29T05:03:59;8.35;;;1.52;;
22780;SDS011;11557;50.884;4.322;2022-12-29T05:06:25;4.15;;;1.30;;
22780;SDS011;11557;50.884;4.322;2022-12-29T05:08:50;6.00;;;1.50;;
22780;SDS011;11557;50.884;4.322;2022-12-29T05:11:16;6.07;;;1.70;;
22780;SDS011;11557;50.884;4.322;2022-12-29T05:13:44;6.13;;;2.20;;
22780;SDS011;11557;50.884;4.322;2022-12-29T05:16:11;3.38;;;1.60;;
22780;SDS011;11557;50.884;4.322;2022-12-29T05:18:36;9.98;;;1.80;;
22780;SDS011;11557;50.884;4.322;2022-12-29T05:21:02;5.72;;;1.70;;
22780;SDS011;11557;50.884;4.322;2022-12-29T05:23:28;8.20;;;2.15;;
22780;SDS011;11557;50.884;4.322;2022-12-29T05:25:53;8.15;;;1.88;;
22780;SDS011;11557;50.884;4.322;2022-12-29T05:28:19;4.90;;;1.35;;
22780;SDS011;11557;50.884;4.322;2022-12-29T05:30:47;12.35;;;2.13;;
22780;SDS011;11557;50.884;4.322;2022-12-29T05:33:14;6.60;;;1.77;;
22780;SDS011;11557;50.884;4.322;2022-12-29T05:35:40;9.63;;;2.45;;
22780;SDS011;11557;50.884;4.322;2022-12-29T05:38:06;10.23;;;2.25;;
22780;SDS011;11557;50.884;4.322;2022-12-29T05:40:31;11.52;;;2.00;;
22780;SDS011;11557;50.884;4.322;2022-12-29T05:42:57;9.73;;;1.80;;
22780;SDS011;11557;50.884;4.322;2022-12-29T05:45:22;6.88;;;1.67;;
22780;SDS011;11557;50.884;4.322;2022-12-29T05:47:48;10.15;;;1.90;;
22780;SDS011;11557;50.884;4.322;2022-12-29T05:50:14;5.82;;;1.42;;
22780;SDS011;11557;50.884;4.322;2022-12-29T05:52:39;10.23;;;2.00;;
22780;SDS011;11557;50.884;4.322;2022-12-29T05:55:05;8.65;;;1.55;;
22780;SDS011;11557;50.884;4.322;2022-12-29T05:57:31;9.00;;;1.77;;
22780;SDS011;11557;50.884;4.322;2022-12-29T05:59:57;7.05;;;1.65;;
22780;SDS011;11557;50.884;4.322;2022-12-29T06:02:22;8.75;;;1.52;;
22780;SDS011;11557;50.884;4.322;2022-12-29T06:04:48;9.32;;;1.65;;
22780;SDS011;11557;50.884;4.322;2022-12-29T06:07:13;10.68;;;1.80;;
22780;SDS011;11557;50.884;4.322;2022-12-29T06:09:39;13.48;;;1.65;;
22780;SDS011;11557;50.884;4.322;2022-12-29T06:12:05;12.75;;;1.63;;
22780;SDS011;11557;50.884;4.322;2022-12-29T06:14:31;7.60;;;1.75;;
22780;SDS011;11557;50.884;4.322;2022-12-29T06:16:56;6.28;;;1.38;;
22780;SDS011;11557;50.884;4.322;2022-12-29T06:19:22;11.07;;;1.80;;
22780;SDS011;11557;50.884;4.322;2022-12-29T06:21:47;8.65;;;2.05;;
22780;SDS011;11557;50.884;4.322;2022-12-29T06:24:13;10.73;;;1.70;;
22780;SDS011;11557;50.884;4.322;2022-12-29T06:26:39;12.05;;;2.30;;
22780;SDS011;11557;50.884;4.322;2022-12-29T06:29:05;11.35;;;1.88;;
22780;SDS011;11557;50.884;4.322;2022-12-29T06:31:33;9.75;;;2.22;;
22780;SDS011;11557;50.884;4.322;2022-12-29T06:33:58;10.30;;;1.65;;
22780;SDS011;11557;50.884;4.322;2022-12-29T06:36:24;9.18;;;1.95;;
22780;SDS011;11557;50.884;4.322;2022-12-29T06:38:50;11.02;;;2.08;;
22780;SDS011;11557;50.884;4.322;2022-12-29T06:41:17;12.52;;;2.10;;
22780;SDS011;11557;50.884;4.322;2022-12-29T06:43:45;12.07;;;1.80;;
22780;SDS011;11557;50.884;4.322;2022-12-29T06:46:10;9.98;;;2.03;;
22780;SDS011;11557;50.884;4.322;2022-12-29T06:48:36;9.57;;;1.42;;
22780;SDS011;11557;50.884;4.322;2022-12-29T06:51:01;12.65;;;1.85;;
22780;SDS011;11557;50.884;4.322;2022-12-29T06:53:27;12.10;;;1.92;;
22780;SDS011;11557;50.884;4.322;2022-12-29T06:55:53;9.63;;;1.65;;
22780;SDS011;11557;50.884;4.322;2022-12-29T06:58:18;10.05;;;1.83;;
22780;SDS011;11557;50.884;4.322;2022-12-29T07:00:44;12.65;;;2.58;;
22780;SDS011;11557;50.884;4.322;2022-12-29T07:03:10;10.98;;;2.00;;
22780;SDS011;11557;50.884;4.322;2022-12-29T07:05:35;14.65;;;2.15;;
22780;SDS011;11557;50.884;4.322;2022-12-29T07:08:01;10.68;;;1.60;;
22780;SDS011;11557;50.884;4.322;2022-12-29T07:10:28;14.43;;;2.15;;
22780;SDS011;11557;50.884;4.322;2022-12-29T07:12:53;9.23;;;1.70;;
22780;SDS011;11557;50.884;4.322;2022-12-29T07:15:19;12.82;;;2.22;;
22780;SDS011;11557;50.884;4.322;2022-12-29T07:17:44;11.23;;;1.90;;
22780;SDS011;11557;50.884;4.322;2022-12-29T07:20:10;10.13;;;2.10;;
22780;SDS011;11557;50.884;4.322;2022-12-29T07:22:36;13.07;;;1.90;;
22780;SDS011;11557;50.884;4.322;2022-12-29T07:25:01;10.30;;;1.52;;
22780;SDS011;11557;50.884;4.322;2022-12-29T07:27:28;15.38;;;2.80;;
22780;SDS011;11557;50.884;4.322;2022-12-29T07:29:54;10.23;;;1.58;;
22780;SDS011;11557;50.884;4.322;2022-12-29T07:32:19;12.25;;;2.45;;
22780;SDS011;11557;50.884;4.322;2022-12-29T07:34:45;6.70;;;1.55;;
22780;SDS011;11557;50.884;4.322;2022-12-29T07:37:12;13.40;;;2.38;;
22780;SDS011;11557;50.884;4.322;2022-12-29T07:39:39;11.10;;;1.70;;
22780;SDS011;11557;50.884;4.322;2022-12-29T07:42:05;7.20;;;1.55;;
22780;SDS011;11557;50.884;4.322;2022-12-29T07:44:30;10.07;;;1.80;;
22780;SDS011;11557;50.884;4.322;2022-12-29T07:46:56;10.18;;;1.65;;
22780;SDS011;11557;50.884;4.322;2022-12-29T07:49:21;10.82;;;2.35;;
22780;SDS011;11557;50.884;4.322;2022-12-29T07:51:47;12.48;;;2.53;;
22780;SDS011;11557;50.884;4.322;2022-12-29T07:54:13;16.00;;;2.28;;
22780;SDS011;11557;50.884;4.322;2022-12-29T07:56:38;10.13;;;2.50;;
22780;SDS011;11557;50.884;4.322;2022-12-29T07:59:04;13.27;;;2.45;;
22780;SDS011;11557;50.884;4.322;2022-12-29T08:01:30;12.35;;;1.80;;
22780;SDS011;11557;50.884;4.322;2022-12-29T08:03:55;9.40;;;2.25;;
22780;SDS011;11557;50.884;4.322;2022-12-29T08:06:21;13.98;;;1.95;;
22780;SDS011;11557;50.884;4.322;2022-12-29T08:08:47;9.98;;;2.15;;
22780;SDS011;11557;50.884;4.322;2022-12-29T08:11:13;10.18;;;1.70;;
22780;SDS011;11557;50.884;4.322;2022-12-29T08:13:38;9.48;;;1.88;;
22780;SDS011;11557;50.884;4.322;2022-12-29T08:16:04;8.85;;;2.28;;
22780;SDS011;11557;50.884;4.322;2022-12-29T08:18:31;16.83;;;2.75;;
22780;SDS011;11557;50.884;4.322;2022-12-29T08:21:00;14.32;;;2.40;;
22780;SDS011;11557;50.884;4.322;2022-12-29T08:23:27;8.73;;;1.70;;
22780;SDS011;11557;50.884;4.322;2022-12-29T08:26:00;10.95;;;2.20;;
22780;SDS011;11557;50.884;4.322;2022-12-29T08:28:27;14.48;;;2.53;;
22780;SDS011;11557;50.884;4.322;2022-12-29T08:30:54;12.45;;;2.10;;
22780;SDS011;11557;50.884;4.322;2022-12-29T08:33:23;12.00;;;2.00;;
22780;SDS011;11557;50.884;4.322;2022-12-29T08:35:48;13.32;;;1.77;;
22780;SDS011;11557;50.884;4.322;2022-12-29T08:38:14;9.80;;;2.13;;
22780;SDS011;11557;50.884;4.322;2022-12-29T08:40:40;10.48;;;2.10;;
22780;SDS011;11557;50.884;4.322;2022-12-29T08:43:05;8.73;;;2.00;;
22780;SDS011;11557;50.884;4.322;2022-12-29T08:45:31;11.60;;;2.20;;
22780;SDS011;11557;50.884;4.322;2022-12-29T08:47:57;10.23;;;1.83;;
22780;SDS011;11557;50.884;4.322;2022-12-29T08:50:23;13.23;;;2.00;;
22780;SDS011;11557;50.884;4.322;2022-12-29T08:52:48;11.05;;;1.90;;
22780;SDS011;11557;50.884;4.322;2022-12-29T08:55:14;10.38;;;1.77;;
22780;SDS011;11557;50.884;4.322;2022-12-29T08:57:40;12.35;;;2.00;;
22780;SDS011;11557;50.884;4.322;2022-12-29T09:00:06;12.50;;;2.50;;
22780;SDS011;11557;50.884;4.322;2022-12-29T09:02:32;10.50;;;2.35;;
22780;SDS011;11557;50.884;4.322;2022-12-29T09:04:58;13.63;;;2.42;;
22780;SDS011;11557;50.884;4.322;2022-12-29T09:07:25;14.65;;;2.22;;
22780;SDS011;11557;50.884;4.322;2022-12-29T09:09:51;16.67;;;2.95;;
22780;SDS011;11557;50.884;4.322;2022-12-29T09:12:17;17.83;;;3.00;;
22780;SDS011;11557;50.884;4.322;2022-12-29T09:14:43;11.90;;;2.50;;
22780;SDS011;11557;50.884;4.322;2022-12-29T09:17:11;15.07;;;2.70;;
22780;SDS011;11557;50.884;4.322;2022-12-29T09:19:55;12.77;;;2.85;;
22780;SDS011;11557;50.884;4.322;2022-12-29T09:22:20;23.67;;;2.45;;
22780;SDS011;11557;50.884;4.322;2022-12-29T09:24:46;11.98;;;2.60;;
22780;SDS011;11557;50.884;4.322;2022-12-29T09:27:12;13.25;;;2.80;;
22780;SDS011;11557;50.884;4.322;2022-12-29T09:29:37;11.50;;;1.98;;
22780;SDS011;11557;50.884;4.322;2022-12-29T09:32:03;16.08;;;2.50;;
22780;SDS011;11557;50.884;4.322;2022-12-29T09:34:29;17.02;;;3.05;;
22780;SDS011;11557;50.884;4.322;2022-12-29T09:36:54;11.43;;;2.53;;
22780;SDS011;11557;50.884;4.322;2022-12-29T09:39:21;11.20;;;2.65;;
22780;SDS011;11557;50.884;4.322;2022-12-29T09:47:16;14.05;;;2.30;;
22780;SDS011;11557;50.884;4.322;2022-12-29T09:49:46;18.73;;;2.55;;
22780;SDS011;11557;50.884;4.322;2022-12-29T09:52:24;15.15;;;2.63;;
22780;SDS011;11557;50.884;4.322;2022-12-29T09:57:35;19.08;;;2.63;;
22780;SDS011;11557;50.884;4.322;2022-12-29T10:00:32;12.80;;;2.22;;
22780;SDS011;11557;50.884;4.322;2022-12-29T10:03:06;17.08;;;2.33;;
22780;SDS011;11557;50.884;4.322;2022-12-29T10:05:48;13.85;;;3.08;;
22780;SDS011;11557;50.884;4.322;2022-12-29T10:10:58;16.45;;;2.53;;
22780;SDS011;11557;50.884;4.322;2022-12-29T10:16:44;18.73;;;2.80;;
22780;SDS011;11557;50.884;4.322;2022-12-29T10:25:04;25.33;;;2.40;;
22780;SDS011;11557;50.884;4.322;2022-12-29T10:27:39;11.23;;;2.28;;
22780;SDS011;11557;50.884;4.322;2022-12-29T10:30:10;16.15;;;2.28;;
22780;SDS011;11557;50.884;4.322;2022-12-29T10:32:38;16.15;;;2.63;;
22780;SDS011;11557;50.884;4.322;2022-12-29T10:35:07;14.15;;;2.38;;
22780;SDS011;11557;50.884;4.322;2022-12-29T10:37:40;18.95;;;2.67;;
22780;SDS011;11557;50.884;4.322;2022-12-29T10:40:25;19.73;;;2.97;;
22780;SDS011;11557;50.884;4.322;2022-12-29T10:43:03;20.83;;;3.22;;
22780;SDS011;11557;50.884;4.322;2022-12-29T10:45:47;14.73;;;2.33;;
22780;SDS011;11557;50.884;4.322;2022-12-29T10:48:17;11.60;;;1.80;;
22780;SDS011;11557;50.884;4.322;2022-12-29T10:50:47;10.55;;;2.75;;
22780;SDS011;11557;50.884;4.322;2022-12-29T10:53:19;16.95;;;2.67;;
22780;SDS011;11557;50.884;4.322;2022-12-29T10:55:49;10.68;;;2.00;;
22780;SDS011;11557;50.884;4.322;2022-12-29T10:58:16;14.70;;;2.33;;
22780;SDS011;11557;50.884;4.322;2022-12-29T11:00:43;12.57;;;2.35;;
22780;SDS011;11557;50.884;4.322;2022-12-29T11:06:25;10.57;;;2.30;;
22780;SDS011;11557;50.884;4.322;2022-12-29T11:11:22;12.75;;;2.30;;
22780;SDS011;11557;50.884;4.322;2022-12-29T11:13:55;10.85;;;2.28;;
22780;SDS011;11557;50.884;4.322;2022-12-29T11:16:33;15.68;;;3.00;;
22780;SDS011;11557;50.884;4.322;2022-12-29T11:19:00;12.85;;;2.70;;
22780;SDS011;11557;50.884;4.322;2022-12-29T11:23:59;14.93;;;2.70;;
22780;SDS011;11557;50.884;4.322;2022-12-29T11:26:27;13.23;;;2.45;;
22780;SDS011;11557;50.884;4.322;2022-12-29T11:31:48;10.15;;;2.05;;
22780;SDS011;11557;50.884;4.322;2022-12-29T11:34:20;16.33;;;2.60;;
22780;SDS011;11557;50.884;4.322;2022-12-29T11:36:48;16.05;;;2.42;;
22780;SDS011;11557;50.884;4.322;2022-12-29T11:39:36;10.43;;;2.47;;
22780;SDS011;11557;50.884;4.322;2022-12-29T11:42:09;14.35;;;2.67;;
22780;SDS011;11557;50.884;4.322;2022-12-29T11:44:41;11.82;;;2.38;;
22780;SDS011;11557;50.884;4.322;2022-12-29T11:47:19;15.07;;;3.28;;
22780;SDS011;11557;50.884;4.322;2022-12-29T11:49:53;15.48;;;2.80;;
22780;SDS011;11557;50.884;4.322;2022-12-29T11:52:23;11.60;;;2.58;;
22780;SDS011;11557;50.884;4.322;2022-12-29T11:54:53;14.80;;;2.85;;
22780;SDS011;11557;50.884;4.322;2022-12-29T11:57:20;17.92;;;3.08;;
22780;SDS011;11557;50.884;4.322;2022-12-29T11:59:49;18.73;;;2.80;;
22780;SDS011;11557;50.884;4.322;2022-12-29T12:08:18;14.95;;;2.28;;
22780;SDS011;11557;50.884;4.322;2022-12-29T12:13:44;13.40;;;2.65;;
22780;SDS011;11557;50.884;4.322;2022-12-29T12:16:24;20.80;;;2.67;;
22780;SDS011;11557;50.884;4.322;2022-12-29T12:19:03;12.30;;;2.58;;
22780;SDS011;11557;50.884;4.322;2022-12-29T12:21:43;16.30;;;2.85;;
22780;SDS011;11557;50.884;4.322;2022-12-29T12:32:51;10.43;;;2.20;;
22780;SDS011;11557;50.884;4.322;2022-12-29T12:41:09;11.60;;;2.65;;
22780;SDS011;11557;50.884;4.322;2022-12-29T12:43:37;11.27;;;2.55;;
22780;SDS011;11557;50.884;4.322;2022-12-29T12:51:58;14.30;;;2.45;;
22780;SDS011;11557;50.884;4.322;2022-12-29T13:00:23;17.05;;;4.20;;
22780;SDS011;11557;50.884;4.322;2022-12-29T13:16:51;10.02;;;2.67;;
22780;SDS011;11557;50.884;4.322;2022-12-29T13:19:28;13.13;;;2.63;;
22780;SDS011;11557;50.884;4.322;2022-12-29T13:24:38;13.48;;;2.65;;
22780;SDS011;11557;50.884;4.322;2022-12-29T13:37:51;10.77;;;2.47;;
22780;SDS011;11557;50.884;4.322;2022-12-29T13:40:27;12.30;;;2.60;;
22780;SDS011;11557;50.884;4.322;2022-12-29T13:42:59;8.15;;;2.17;;
22780;SDS011;11557;50.884;4.322;2022-12-29T13:45:28;13.40;;;2.53;;
22780;SDS011;11557;50.884;4.322;2022-12-29T14:02:02;10.98;;;2.05;;
22780;SDS011;11557;50.884;4.322;2022-12-29T14:04:41;23.80;;;3.47;;
22780;SDS011;11557;50.884;4.322;2022-12-29T14:09:47;20.25;;;3.45;;
22780;SDS011;11557;50.884;4.322;2022-12-29T14:12:35;17.40;;;2.97;;
22780;SDS011;11557;50.884;4.322;2022-12-29T14:17:35;18.50;;;3.10;;
22780;SDS011;11557;50.884;4.322;2022-12-29T14:20:02;16.70;;;3.63;;
22780;SDS011;11557;50.884;4.322;2022-12-29T14:22:31;13.05;;;2.60;;
22780;SDS011;11557;50.884;4.322;2022-12-29T14:24:56;12.98;;;2.83;;
22780;SDS011;11557;50.884;4.322;2022-12-29T14:30:29;12.75;;;2.00;;
22780;SDS011;11557;50.884;4.322;2022-12-29T14:33:16;10.00;;;1.83;;
22780;SDS011;11557;50.884;4.322;2022-12-29T14:35:43;6.80;;;1.25;;
22780;SDS011;11557;50.884;4.322;2022-12-29T14:38:22;6.80;;;1.00;;
22780;SDS011;11557;50.884;4.322;2022-12-29T14:40:52;6.75;;;1.48;;
22780;SDS011;11557;50.884;4.322;2022-12-29T14:43:37;9.40;;;2.25;;
22780;SDS011;11557;50.884;4.322;2022-12-29T14:46:03;7.13;;;1.30;;
22780;SDS011;11557;50.884;4.322;2022-12-29T14:48:34;6.75;;;1.30;;
22780;SDS011;11557;50.884;4.322;2022-12-29T14:51:17;5.95;;;1.25;;
22780;SDS011;11557;50.884;4.322;2022-12-29T14:53:46;5.32;;;1.40;;
22780;SDS011;11557;50.884;4.322;2022-12-29T14:56:17;8.85;;;2.05;;
22780;SDS011;11557;50.884;4.322;2022-12-29T14:58:49;12.30;;;2.05;;
22780;SDS011;11557;50.884;4.322;2022-12-29T15:01:26;8.13;;;1.35;;
22780;SDS011;11557;50.884;4.322;2022-12-29T15:03:57;5.50;;;1.40;;
22780;SDS011;11557;50.884;4.322;2022-12-29T15:06:29;7.07;;;1.60;;
22780;SDS011;11557;50.884;4.322;2022-12-29T15:14:03;6.22;;;1.48;;
22780;SDS011;11557;50.884;4.322;2022-12-29T15:16:48;9.45;;;1.77;;
22780;SDS011;11557;50.884;4.322;2022-12-29T15:19:24;11.23;;;1.70;;
22780;SDS011;11557;50.884;4.322;2022-12-29T15:21:54;7.03;;;1.60;;
22780;SDS011;11557;50.884;4.322;2022-12-29T15:24:21;10.13;;;1.63;;
22780;SDS011;11557;50.884;4.322;2022-12-29T15:26:49;9.00;;;2.00;;
22780;SDS011;11557;50.884;4.322;2022-12-29T15:32:18;10.05;;;1.70;;
22780;SDS011;11557;50.884;4.322;2022-12-29T15:34:50;16.52;;;2.00;;
22780;SDS011;11557;50.884;4.322;2022-12-29T15:37:24;12.73;;;2.53;;
22780;SDS011;11557;50.884;4.322;2022-12-29T15:39:54;14.95;;;2.22;;
22780;SDS011;11557;50.884;4.322;2022-12-29T15:42:27;16.75;;;3.20;;
22780;SDS011;11557;50.884;4.322;2022-12-29T15:45:13;9.98;;;2.13;;
22780;SDS011;11557;50.884;4.322;2022-12-29T15:47:40;13.63;;;2.50;;
22780;SDS011;11557;50.884;4.322;2022-12-29T15:50:15;13.38;;;3.20;;
22780;SDS011;11557;50.884;4.322;2022-12-29T15:52:48;13.32;;;2.45;;
22780;SDS011;11557;50.884;4.322;2022-12-29T15:55:24;11.20;;;2.50;;
22780;SDS011;11557;50.884;4.322;2022-12-29T15:57:58;12.70;;;2.60;;
22780;SDS011;11557;50.884;4.322;2022-12-29T16:00:27;11.00;;;2.25;;
22780;SDS011;11557;50.884;4.322;2022-12-29T16:02:54;16.45;;;2.88;;
22780;SDS011;11557;50.884;4.322;2022-12-29T16:05:21;14.63;;;2.90;;
22780;SDS011;11557;50.884;4.322;2022-12-29T16:07:57;11.27;;;2.63;;
22780;SDS011;11557;50.884;4.322;2022-12-29T16:10:26;14.75;;;3.00;;
22780;SDS011;11557;50.884;4.322;2022-12-29T16:12:54;19.95;;;2.65;;
22780;SDS011;11557;50.884;4.322;2022-12-29T16:15:19;13.35;;;2.97;;
22780;SDS011;11557;50.884;4.322;2022-12-29T16:17:46;14.15;;;3.00;;
22780;SDS011;11557;50.884;4.322;2022-12-29T16:20:16;16.98;;;3.47;;
22780;SDS011;11557;50.884;4.322;2022-12-29T16:22:50;12.50;;;3.67;;
22780;SDS011;11557;50.884;4.322;2022-12-29T16:25:30;18.02;;;3.30;;
22780;SDS011;11557;50.884;4.322;2022-12-29T16:28:00;18.33;;;3.38;;
22780;SDS011;11557;50.884;4.322;2022-12-29T16:30:29;23.95;;;4.85;;
22780;SDS011;11557;50.884;4.322;2022-12-29T16:33:03;18.20;;;4.55;;
22780;SDS011;11557;50.884;4.322;2022-12-29T16:35:44;19.20;;;4.25;;
22780;SDS011;11557;50.884;4.322;2022-12-29T16:41:00;22.85;;;3.88;;
22780;SDS011;11557;50.884;4.322;2022-12-29T16:43:30;18.05;;;4.32;;
22780;SDS011;11557;50.884;4.322;2022-12-29T16:48:29;14.32;;;3.65;;
22780;SDS011;11557;50.884;4.322;2022-12-29T16:51:13;18.85;;;3.80;;
22780;SDS011;11557;50.884;4.322;2022-12-29T16:54:00;14.85;;;4.07;;
22780;SDS011;11557;50.884;4.322;2022-12-29T16:56:27;17.33;;;3.92;;
22780;SDS011;11557;50.884;4.322;2022-12-29T16:59:05;18.95;;;3.72;;
22780;SDS011;11557;50.884;4.322;2022-12-29T17:01:37;16.88;;;3.85;;
22780;SDS011;11557;50.884;4.322;2022-12-29T17:04:11;17.00;;;3.72;;
22780;SDS011;11557;50.884;4.322;2022-12-29T17:06:38;23.42;;;4.93;;
22780;SDS011;11557;50.884;4.322;2022-12-29T17:09:20;21.00;;;4.70;;
22780;SDS011;11557;50.884;4.322;2022-12-29T17:11:51;25.55;;;3.75;;
22780;SDS011;11557;50.884;4.322;2022-12-29T17:17:11;19.88;;;3.80;;
22780;SDS011;11557;50.884;4.322;2022-12-29T17:19:37;13.77;;;3.85;;
22780;SDS011;11557;50.884;4.322;2022-12-29T17:22:14;18.83;;;4.30;;
22780;SDS011;11557;50.884;4.322;2022-12-29T17:24:43;22.35;;;5.40;;
22780;SDS011;11557;50.884;4.322;2022-12-29T17:27:09;15.85;;;3.72;;
22780;SDS011;11557;50.884;4.322;2022-12-29T17:29:50;19.77;;;4.88;;
22780;SDS011;11557;50.884;4.322;2022-12-29T17:32:17;21.15;;;4.82;;
22780;SDS011;11557;50.884;4.322;2022-12-29T17:34:43;20.90;;;3.72;;
22780;SDS011;11557;50.884;4.322;2022-12-29T17:37:15;23.13;;;4.20;;
22780;SDS011;11557;50.884;4.322;2022-12-29T17:39:49;23.35;;;3.72;;
22780;SDS011;11557;50.884;4.322;2022-12-29T17:42:15;15.73;;;2.97;;
22780;SDS011;11557;50.884;4.322;2022-12-29T17:44:42;18.75;;;3.22;;
22780;SDS011;11557;50.884;4.322;2022-12-29T17:47:11;21.17;;;3.88;;
22780;SDS011;11557;50.884;4.322;2022-12-29T17:49:37;22.17;;;3.88;;